Gus'-Khrustal'ny, Russia
Current Conditions -  °F | °C
As of 11:00 AM on Friday 19 Dec 2014 (Local Time) from UUDD Reporting Station
Overcast Overcast  
Wind Chill: 23°   Ceiling: 1500
Heat Index: 32°   Visibility: 6mi
Dew Point: 28°   Wind: 11mph
Humidity: 87%   Direction: 180°S
Pressure: 29.71"   Gusts: NA
Location:  55.6°N, 40.65°E
Report Text: UUDD 190800Z 18005MPS 9999 OVC015 M00/M02 Q1006 6429009514290095 NOSIG
Loading
Personal Weather Stations






























Interactive Weather Map New forecast layout! Learn more

10-Day Weather Forecast

Advertisements
Track Severe Weather on mobile